createdAt,value
2023-03-13T00:03:11.717Z,100313.93
2023-03-13T00:07:31.311Z,100314.26
2023-03-13T00:11:54.284Z,100300.63
2023-03-13T00:15:53.359Z,100299.76
2023-03-13T00:42:00.814Z,100304.63
2023-03-13T00:46:05.476Z,100295.58
2023-03-13T00:50:25.188Z,100295.60
2023-03-13T00:54:54.929Z,100296.65
2023-03-13T00:59:14.245Z,100285.61
2023-03-13T01:03:44.584Z,100281.39
2023-03-13T01:34:47.239Z,100265.66
2023-03-13T01:39:16.455Z,100259.35
2023-03-13T01:43:58.522Z,100249.31
2023-03-13T01:48:10.983Z,100240.17
2023-03-13T01:52:37.336Z,100236.98
2023-03-13T01:57:12.681Z,100230.17
2023-03-13T02:01:42.812Z,100218.11
2023-03-13T02:06:13.001Z,100213.70
2023-03-13T02:10:42.617Z,100205.14
2023-03-13T02:18:46.555Z,100183.14
2023-03-13T02:23:12.732Z,100181.98
2023-03-13T02:27:35.385Z,100181.77
2023-03-13T02:32:00.121Z,100181.91
2023-03-13T02:50:20.310Z,100196.14
2023-03-13T02:54:19.637Z,100190.31
2023-03-13T03:02:37.590Z,100180.81
2023-03-13T03:06:41.108Z,100182.37
2023-03-13T03:11:10.377Z,100182.50
2023-03-13T03:41:05.587Z,100148.30
2023-03-13T03:45:34.490Z,100147.77
2023-03-13T03:49:55.319Z,100138.31
2023-03-13T03:54:14.593Z,100131.09
2023-03-13T03:58:34.852Z,100125.14
2023-03-13T04:03:07.082Z,100115.96
2023-03-13T04:07:35.536Z,100105.55
2023-03-13T04:11:57.396Z,100097.59
2023-03-13T04:16:28.054Z,100091.59
2023-03-13T04:33:20.428Z,100079.27
2023-03-13T05:09:17.611Z,100022.55
2023-03-13T05:13:56.188Z,100010.37
2023-03-13T05:18:36.062Z,100006.58
2023-03-13T05:22:41.083Z,99993.14
2023-03-13T05:26:55.518Z,99989.47
2023-03-13T05:30:53.047Z,99983.48
2023-03-13T05:35:10.764Z,99978.38
2023-03-13T05:52:24.742Z,99948.45
2023-03-13T06:09:45.386Z,99919.83
2023-03-13T06:13:57.116Z,99911.21
2023-03-13T06:18:38.712Z,99898.89
2023-03-13T06:23:07.976Z,99892.23
2023-03-13T06:27:26.249Z,99878.11
2023-03-13T06:39:38.965Z,99847.20
2023-03-13T06:44:08.402Z,99840.13
2023-03-13T06:48:18.608Z,99837.10
2023-03-13T06:52:41.411Z,99833.34
2023-03-13T06:57:01.199Z,99828.11
2023-03-13T07:01:10.439Z,99823.89
2023-03-13T07:05:28.699Z,99822.67
2023-03-13T07:09:48.701Z,99813.84
2023-03-13T07:13:48.118Z,99808.21
2023-03-13T07:18:17.850Z,99804.71
2023-03-13T07:56:17.720Z,99735.83
2023-03-13T08:00:18.445Z,99722.81
2023-03-13T08:04:43.290Z,99715.36
2023-03-13T08:08:43.961Z,99706.20
2023-03-13T08:12:53.206Z,99699.80
2023-03-13T08:17:07.759Z,99692.72
2023-03-13T08:21:13.222Z,99686.92
2023-03-13T08:25:24.632Z,99674.87
2023-03-13T08:29:33.231Z,99668.35
2023-03-13T09:01:23.639Z,99619.28
2023-03-13T09:05:55.749Z,99590.54
2023-03-13T09:41:07.341Z,99528.77
2023-03-13T09:45:52.968Z,99538.49
2023-03-13T09:49:59.033Z,99526.27
2023-03-13T09:54:04.297Z,99517.17
2023-03-13T09:57:58.678Z,99516.73
2023-03-13T10:12:20.924Z,99489.19
2023-03-13T10:16:52.213Z,99487.84
2023-03-13T10:21:17.330Z,99482.91
2023-03-13T10:25:23.720Z,99481.42
2023-03-13T10:29:36.195Z,99472.39
2023-03-13T10:33:56.534Z,99473.88
2023-03-13T10:54:33.486Z,99437.87
2023-03-13T11:04:00.714Z,99432.55
2023-03-13T11:08:30.970Z,99432.56
2023-03-13T11:17:19.211Z,99424.03
2023-03-13T11:21:18.784Z,99413.21
2023-03-13T11:25:41.593Z,99402.95
2023-03-13T11:30:07.233Z,99407.80
2023-03-13T12:02:24.465Z,99376.42
2023-03-13T12:07:05.707Z,99361.66
2023-03-13T12:26:22.567Z,99348.52
2023-03-13T13:13:07.314Z,99317.70
2023-03-13T13:17:41.845Z,99318.34
2023-03-13T13:22:13.117Z,99313.71
2023-03-13T13:26:25.279Z,99306.08
2023-03-13T13:30:38.533Z,99303.89
2023-03-13T14:06:40.068Z,99265.52
2023-03-13T14:11:15.743Z,99273.77
2023-03-13T14:15:50.902Z,99264.13
2023-03-13T14:20:10.289Z,99276.11
2023-03-13T14:24:22.560Z,99259.65
2023-03-13T14:28:58.997Z,99265.34
2023-03-13T14:51:52.377Z,99247.36
2023-03-13T14:56:23.704Z,99242.80
2023-03-13T15:01:05.636Z,99244.42
2023-03-13T15:26:14.232Z,99214.50
2023-03-13T15:30:14.771Z,99207.58
2023-03-13T15:34:29.523Z,99202.67
2023-03-13T16:04:45.215Z,99185.15
2023-03-13T16:08:45.077Z,99179.77
2023-03-13T16:13:14.630Z,99171.66
2023-03-13T16:17:29.639Z,99171.42
2023-03-13T16:21:50.118Z,99161.06
2023-03-13T16:25:48.659Z,99160.13
2023-03-13T16:29:58.075Z,99156.30
2023-03-13T17:08:06.138Z,99119.33
2023-03-13T17:12:21.338Z,99121.65
2023-03-13T17:16:56.487Z,99126.30
2023-03-13T17:21:17.953Z,99127.05
2023-03-13T17:25:40.003Z,99123.05
2023-03-13T17:30:09.297Z,99114.45
2023-03-13T17:34:29.855Z,99103.89
2023-03-13T18:01:30.907Z,99092.23
2023-03-13T18:05:44.743Z,99095.45
2023-03-13T18:09:59.693Z,99102.83
2023-03-13T18:14:30.251Z,99103.84
2023-03-13T18:23:34.908Z,99098.29
2023-03-13T18:37:58.902Z,99086.09
2023-03-13T18:42:08.680Z,99073.17
2023-03-13T18:46:18.163Z,99078.94
2023-03-13T18:50:36.612Z,99072.42
2023-03-13T18:58:32.524Z,99062.95
2023-03-13T19:02:51.890Z,99072.58
2023-03-13T19:07:23.995Z,99066.21
2023-03-13T19:11:55.235Z,99062.25
2023-03-13T19:16:23.122Z,99058.95
2023-03-13T19:20:42.668Z,99052.23
2023-03-13T19:41:58.571Z,99035.89
2023-03-13T19:46:28.605Z,99031.45
2023-03-13T19:50:53.660Z,99038.70
2023-03-13T19:55:06.347Z,99038.70
2023-03-13T20:20:20.871Z,99035.98
2023-03-13T20:24:50.383Z,99037.05
2023-03-13T20:29:19.831Z,99023.71
2023-03-13T20:33:50.426Z,99026.58
2023-03-13T20:38:12.546Z,99031.67
2023-03-13T20:59:23.675Z,99013.98
2023-03-13T21:03:35.883Z,99006.14
2023-03-13T21:20:10.825Z,98994.98
2023-03-13T21:24:29.001Z,98983.11
2023-03-13T21:52:30.566Z,98991.15
2023-03-13T21:56:59.960Z,98982.44
2023-03-13T22:01:29.833Z,98985.71
2023-03-13T22:22:53.814Z,99005.18
2023-03-13T22:27:16.083Z,98998.91
2023-03-13T22:31:33.910Z,98987.77
2023-03-13T22:36:03.353Z,98968.52
2023-03-13T22:40:26.208Z,98966.16
2023-03-13T22:49:27.944Z,98984.47
2023-03-13T22:53:32.906Z,98983.77
2023-03-13T23:23:56.716Z,98995.83
2023-03-13T23:28:26.086Z,98995.20
2023-03-13T23:32:55.507Z,98979.79
2023-03-13T23:41:06.724Z,98968.59
2023-03-13T23:45:28.320Z,98984.73
2023-03-13T23:49:18.975Z,98987.73
2023-03-13T23:53:41.947Z,98981.96
2023-03-13T23:57:49.540Z,98970.09
